createdAt,value
2022-12-22T00:01:05.050Z,91.37
2022-12-22T00:06:28.111Z,90.89
2022-12-22T00:11:49.649Z,91.30
2022-12-22T00:17:10.181Z,91.08
2022-12-22T00:22:32.995Z,91.13
2022-12-22T00:27:54.702Z,90.98
2022-12-22T00:33:15.249Z,91.05
2022-12-22T00:38:38.335Z,91.09
2022-12-22T00:44:00.114Z,90.90
2022-12-22T00:49:20.791Z,91.24
2022-12-22T00:54:41.517Z,90.90
2022-12-22T01:00:03.465Z,91.07
2022-12-22T01:05:24.492Z,91.04
2022-12-22T01:10:46.294Z,90.91
2022-12-22T01:16:07.932Z,90.94
2022-12-22T01:21:29.145Z,90.98
2022-12-22T01:26:49.183Z,91.22
2022-12-22T01:32:10.747Z,91.21
2022-12-22T01:37:31.149Z,91.09
2022-12-22T01:42:53.658Z,90.99
2022-12-22T01:48:15.466Z,91.07
2022-12-22T01:53:39.379Z,91.23
2022-12-22T01:59:03.278Z,91.31
2022-12-22T02:04:25.342Z,90.63
2022-12-22T02:09:55.844Z,90.85
2022-12-22T02:15:21.955Z,90.94
2022-12-22T02:20:55.078Z,91.04
2022-12-22T02:26:21.094Z,91.09
2022-12-22T02:31:43.721Z,91.19
2022-12-22T02:37:13.189Z,91.15
2022-12-22T02:42:41.628Z,91.14
2022-12-22T02:48:08.865Z,91.32
2022-12-22T02:53:32.210Z,91.38
2022-12-22T02:58:53.148Z,91.15
2022-12-22T03:04:14.854Z,90.98
2022-12-22T03:09:35.260Z,91.27
2022-12-22T03:14:55.616Z,91.22
2022-12-22T03:20:17.270Z,91.13
2022-12-22T03:25:37.761Z,91.14
2022-12-22T03:30:40.876Z,91.12
2022-12-22T03:35:46.365Z,91.30
2022-12-22T03:40:49.129Z,90.98
2022-12-22T03:46:12.965Z,91.14
2022-12-22T03:51:17.163Z,91.19
2022-12-22T03:56:19.932Z,91.31
2022-12-22T04:01:22.999Z,91.13
2022-12-22T04:06:27.201Z,90.86
2022-12-22T04:11:47.543Z,90.78
2022-12-22T04:16:50.498Z,90.65
2022-12-22T04:21:55.386Z,91.05
2022-12-22T04:26:58.188Z,90.63
2022-12-22T04:32:01.023Z,90.56
2022-12-22T04:37:14.820Z,90.82
2022-12-22T04:42:20.189Z,90.78
2022-12-22T04:47:23.009Z,90.59
2022-12-22T04:52:27.647Z,90.29
2022-12-22T04:57:31.135Z,90.65
2022-12-22T05:02:36.202Z,90.68
2022-12-22T05:07:40.409Z,90.66
2022-12-22T05:12:58.092Z,90.73
2022-12-22T05:18:01.569Z,90.57
2022-12-22T05:23:05.662Z,90.85
2022-12-22T05:28:08.405Z,90.85
2022-12-22T05:33:11.138Z,90.84
2022-12-22T05:38:15.244Z,90.43
2022-12-22T05:43:17.994Z,90.49
2022-12-22T05:48:27.413Z,90.45
2022-12-22T05:53:33.677Z,90.12
2022-12-22T05:58:39.399Z,90.18
2022-12-22T06:03:42.263Z,90.17
2022-12-22T06:08:46.495Z,90.19
2022-12-22T06:13:49.212Z,90.47
2022-12-22T06:18:51.907Z,90.12
2022-12-22T06:23:56.179Z,90.68
2022-12-22T06:28:58.844Z,90.40
2022-12-22T06:34:01.392Z,90.46
2022-12-22T06:39:05.766Z,90.64
2022-12-22T06:44:08.514Z,90.50
2022-12-22T06:49:11.212Z,90.67
2022-12-22T06:54:19.471Z,90.61
2022-12-22T06:59:25.009Z,90.98
2022-12-22T07:04:29.688Z,90.87
2022-12-22T07:09:33.850Z,90.85
2022-12-22T07:14:36.593Z,90.97
2022-12-22T07:19:39.341Z,90.95
2022-12-22T07:24:43.486Z,91.20
2022-12-22T07:29:46.227Z,91.02
2022-12-22T07:34:48.984Z,91.17
2022-12-22T07:39:53.069Z,91.20
2022-12-22T07:44:55.835Z,91.36
2022-12-22T07:50:15.944Z,91.27
2022-12-22T07:55:20.536Z,91.47
2022-12-22T08:00:24.551Z,91.43
2022-12-22T08:05:27.302Z,91.64
2022-12-22T08:10:32.776Z,91.66
2022-12-22T08:15:35.567Z,91.77
2022-12-22T08:20:38.409Z,91.49
2022-12-22T08:25:42.613Z,91.17
2022-12-22T08:30:46.347Z,91.81
2022-12-22T08:35:51.875Z,91.57
2022-12-22T08:40:55.993Z,90.74
2022-12-22T08:45:58.703Z,91.50
2022-12-22T08:51:01.461Z,91.50
2022-12-22T08:56:06.064Z,91.17
2022-12-22T09:01:08.882Z,91.42
2022-12-22T09:06:11.647Z,91.15
2022-12-22T09:11:16.967Z,91.43
2022-12-22T09:16:20.938Z,91.59
2022-12-22T09:21:24.739Z,91.92
2022-12-22T09:26:30.211Z,92.10
2022-12-22T09:31:34.157Z,91.90
2022-12-22T09:36:37.096Z,91.94
2022-12-22T09:41:47.131Z,91.54
2022-12-22T09:46:50.812Z,91.64
2022-12-22T09:51:57.166Z,92.44
2022-12-22T09:57:02.524Z,93.19
2022-12-22T10:02:17.364Z,93.10
2022-12-22T10:07:27.657Z,93.46
2022-12-22T10:12:31.843Z,95.53
2022-12-22T10:17:35.804Z,94.90
2022-12-22T10:22:50.709Z,93.97
2022-12-22T10:27:56.089Z,94.72
2022-12-22T10:33:07.933Z,93.76
2022-12-22T10:38:28.124Z,93.08
2022-12-22T10:43:32.986Z,92.92
2022-12-22T10:48:37.910Z,92.52
2022-12-22T10:53:46.264Z,92.82
2022-12-22T10:58:50.429Z,92.61
2022-12-22T11:03:53.314Z,94.57
2022-12-22T11:09:23.706Z,94.06
2022-12-22T11:14:31.917Z,93.48
2022-12-22T11:19:46.795Z,92.30
2022-12-22T11:25:03.677Z,92.52
2022-12-22T11:30:11.165Z,93.25
2022-12-22T11:35:20.723Z,92.92
2022-12-22T11:40:33.938Z,93.15
2022-12-22T11:45:53.099Z,92.59
2022-12-22T11:51:08.953Z,90.72
2022-12-22T11:56:23.590Z,90.19
2022-12-22T12:01:43.697Z,88.84
2022-12-22T12:07:04.926Z,89.31
2022-12-22T12:12:17.999Z,86.11
2022-12-22T12:17:35.703Z,85.18
2022-12-22T12:22:49.682Z,81.01
2022-12-22T12:28:09.015Z,83.78
2022-12-22T12:33:18.137Z,83.07
2022-12-22T12:39:05.581Z,83.55
2022-12-22T12:43:54.468Z,83.51
2022-12-22T12:48:57.296Z,83.71
2022-12-22T12:54:42.948Z,83.86
2022-12-22T12:59:51.565Z,84.72
2022-12-22T13:05:33.324Z,83.88
2022-12-22T13:10:38.289Z,83.07
2022-12-22T13:15:44.936Z,83.53
2022-12-22T13:21:12.226Z,79.48
2022-12-22T13:26:22.701Z,80.31
2022-12-22T13:31:34.407Z,80.49
2022-12-22T13:36:38.119Z,75.73
2022-12-22T13:41:42.896Z,74.53
2022-12-22T13:46:47.983Z,75.17
2022-12-22T13:51:50.847Z,74.26
2022-12-22T13:56:56.688Z,74.42
2022-12-22T14:02:03.111Z,74.90
2022-12-22T14:07:11.945Z,75.51
2022-12-22T14:12:18.059Z,74.88
2022-12-22T14:17:24.887Z,74.91
2022-12-22T14:22:30.218Z,75.23
2022-12-22T14:27:36.995Z,75.95
2022-12-22T14:32:42.703Z,77.08
2022-12-22T14:37:45.473Z,77.69
2022-12-22T14:42:48.338Z,78.77
2022-12-22T14:47:54.367Z,78.88
2022-12-22T14:52:59.323Z,80.18
2022-12-22T14:58:06.559Z,80.06
2022-12-22T15:03:31.972Z,80.76
2022-12-22T15:08:39.132Z,81.26
2022-12-22T15:13:42.301Z,81.01
2022-12-22T15:18:47.343Z,81.22
2022-12-22T15:23:50.492Z,81.05
2022-12-22T15:28:53.304Z,81.71
2022-12-22T15:34:00.446Z,82.48
2022-12-22T15:39:03.183Z,82.46
2022-12-22T15:44:06.011Z,82.38
2022-12-22T15:49:16.244Z,83.18
2022-12-22T15:54:19.826Z,82.82
2022-12-22T15:59:25.893Z,82.27
2022-12-22T16:04:30.404Z,81.86
2022-12-22T16:09:39.980Z,81.16
2022-12-22T16:14:50.014Z,80.93
2022-12-22T16:19:54.882Z,80.58
2022-12-22T16:24:57.941Z,81.11
2022-12-22T16:30:00.778Z,81.21
2022-12-22T16:35:16.272Z,82.41
2022-12-22T16:40:20.090Z,83.10
2022-12-22T16:45:25.183Z,83.54
2022-12-22T16:50:33.286Z,83.90
2022-12-22T16:55:36.054Z,83.69
2022-12-22T17:00:40.601Z,83.59
2022-12-22T17:05:49.069Z,83.08
2022-12-22T17:10:52.803Z,82.85
2022-12-22T17:15:55.610Z,82.78
2022-12-22T17:21:01.230Z,82.24
2022-12-22T17:26:08.679Z,82.48
2022-12-22T17:31:16.494Z,81.98
2022-12-22T17:36:29.493Z,81.61
2022-12-22T17:41:32.480Z,82.07
2022-12-22T17:46:35.327Z,81.79
2022-12-22T17:51:40.769Z,81.87
2022-12-22T17:56:43.561Z,80.89
2022-12-22T18:01:46.390Z,80.95
2022-12-22T18:06:50.560Z,81.00
2022-12-22T18:11:54.618Z,80.93
2022-12-22T18:16:57.563Z,80.76
2022-12-22T18:22:01.598Z,80.95
2022-12-22T18:27:04.557Z,80.96
2022-12-22T18:32:09.295Z,80.69
2022-12-22T18:37:17.542Z,80.66
2022-12-22T18:42:22.690Z,80.98
2022-12-22T18:47:25.396Z,82.35
2022-12-22T18:52:30.926Z,83.75
2022-12-22T18:57:33.615Z,84.86
2022-12-22T19:02:36.279Z,85.70
2022-12-22T19:07:40.539Z,86.51
2022-12-22T19:12:43.520Z,86.77
2022-12-22T19:17:46.420Z,86.90
2022-12-22T19:22:51.131Z,87.28
2022-12-22T19:27:57.423Z,86.80
2022-12-22T19:33:03.046Z,87.25
2022-12-22T19:38:19.786Z,87.85
2022-12-22T19:43:22.656Z,87.52
2022-12-22T19:48:27.682Z,88.01
2022-12-22T19:53:31.782Z,88.20
2022-12-22T19:58:40.630Z,88.51
2022-12-22T20:03:43.446Z,88.46
2022-12-22T20:08:47.625Z,88.63
2022-12-22T20:13:50.482Z,88.94
2022-12-22T20:18:53.333Z,88.83
2022-12-22T20:24:01.048Z,88.71
2022-12-22T20:29:03.827Z,89.06
2022-12-22T20:34:06.816Z,89.24
2022-12-22T20:39:16.377Z,89.33
2022-12-22T20:44:19.180Z,89.74
2022-12-22T20:49:21.943Z,89.76
2022-12-22T20:54:26.064Z,89.89
2022-12-22T20:59:29.177Z,89.99
2022-12-22T21:04:32.443Z,90.43
2022-12-22T21:09:36.815Z,90.86
2022-12-22T21:14:39.759Z,91.15
2022-12-22T21:19:42.526Z,91.33
2022-12-22T21:24:46.680Z,91.32
2022-12-22T21:29:49.437Z,91.57
2022-12-22T21:34:52.232Z,91.98
2022-12-22T21:39:56.393Z,91.73
2022-12-22T21:44:59.516Z,91.70
2022-12-22T21:50:02.300Z,92.28
2022-12-22T21:55:07.336Z,92.65
2022-12-22T22:00:13.623Z,92.55
2022-12-22T22:05:24.155Z,92.37
2022-12-22T22:10:30.454Z,93.00
2022-12-22T22:15:33.703Z,94.03
2022-12-22T22:20:36.552Z,94.50
2022-12-22T22:25:40.921Z,93.89
2022-12-22T22:30:43.808Z,93.42
2022-12-22T22:35:46.758Z,93.57
2022-12-22T22:40:51.254Z,94.11
2022-12-22T22:45:54.025Z,93.94
2022-12-22T22:50:56.818Z,93.79
2022-12-22T22:56:03.688Z,95.96
2022-12-22T23:01:07.711Z,96.91
2022-12-22T23:06:13.652Z,95.73
2022-12-22T23:11:18.155Z,96.48
2022-12-22T23:16:21.912Z,96.59
2022-12-22T23:21:24.925Z,96.00
2022-12-22T23:26:29.139Z,96.47
2022-12-22T23:31:32.453Z,95.70
2022-12-22T23:36:35.441Z,96.78
2022-12-22T23:41:39.667Z,97.87
2022-12-22T23:46:42.486Z,95.58
2022-12-22T23:51:45.354Z,96.88
2022-12-22T23:56:49.531Z,96.73
